createdAt,value
2022-07-30T00:00:55.574Z,101003.95
2022-07-30T00:03:24.164Z,101002.52
2022-07-30T00:05:56.432Z,100996.36
2022-07-30T00:08:48.153Z,100994.23
2022-07-30T00:11:27.225Z,100995.55
2022-07-30T00:14:30.112Z,101000.56
2022-07-30T00:17:13.116Z,101004.06
2022-07-30T00:20:13.968Z,101010.97
2022-07-30T00:22:54.360Z,101006.76
2022-07-30T00:25:37.072Z,101007.75
2022-07-30T00:29:10.692Z,101002.73
2022-07-30T00:33:00.392Z,100996.95
2022-07-30T00:36:49.235Z,100993.04
2022-07-30T00:40:38.239Z,100992.17
2022-07-30T00:44:27.340Z,100990.23
2022-07-30T00:48:16.478Z,100988.12
2022-07-30T00:52:05.278Z,100983.27
2022-07-30T00:55:54.310Z,100977.89
2022-07-30T00:59:43.515Z,100977.77
2022-07-30T01:03:32.295Z,100974.39
2022-07-30T01:07:21.404Z,100986.58
2022-07-30T01:11:13.242Z,100983.90
2022-07-30T01:15:02.410Z,100976.48
2022-07-30T01:18:51.773Z,100968.84
2022-07-30T01:22:49.817Z,100964.13
2022-07-30T01:26:51.157Z,100953.34
2022-07-30T01:30:40.330Z,100948.35
2022-07-30T01:34:29.804Z,100943.34
2022-07-30T01:38:18.933Z,100943.64
2022-07-30T01:41:03.960Z,100948.77
2022-07-30T01:44:23.792Z,100954.87
2022-07-30T01:48:13.372Z,100960.77
2022-07-30T01:51:18.855Z,100958.89
2022-07-30T01:54:24.796Z,100958.39
2022-07-30T01:57:56.304Z,100958.52
2022-07-30T02:00:58.947Z,100954.64
2022-07-30T02:03:30.351Z,100951.16
2022-07-30T02:06:35.002Z,100953.98
2022-07-30T02:10:07.531Z,100957.21
2022-07-30T02:13:02.410Z,100959.36
2022-07-30T02:16:00.209Z,100954.77
2022-07-30T02:19:06.049Z,100951.54
2022-07-30T02:22:33.476Z,100947.83
2022-07-30T02:26:10.170Z,100932.98
2022-07-30T02:29:36.594Z,100934.35
2022-07-30T02:33:26.296Z,100938.08
2022-07-30T02:36:59.837Z,100940.95
2022-07-30T02:40:50.523Z,100935.17
2022-07-30T02:44:40.090Z,100932.80
2022-07-30T02:48:44.575Z,100928.98
2022-07-30T02:52:33.761Z,100921.30
2022-07-30T02:56:26.884Z,100913.41
2022-07-30T03:00:17.999Z,100904.73
2022-07-30T03:04:07.162Z,100901.73
2022-07-30T03:07:59.312Z,100899.37
2022-07-30T03:11:48.384Z,100900.48
2022-07-30T03:15:39.451Z,100898.64
2022-07-30T03:19:29.217Z,100894.05
2022-07-30T03:23:25.749Z,100889.55
2022-07-30T03:27:20.955Z,100880.75
2022-07-30T03:31:11.909Z,100873.14
2022-07-30T03:35:16.973Z,100872.05
2022-07-30T03:39:11.296Z,100877.31
2022-07-30T03:43:01.068Z,100875.71
2022-07-30T03:46:56.796Z,100883.96
2022-07-30T03:50:46.517Z,100884.55
2022-07-30T03:54:35.930Z,100884.69
2022-07-30T03:58:23.473Z,100883.27
2022-07-30T04:02:23.261Z,100881.60
2022-07-30T04:06:11.209Z,100883.23
2022-07-30T04:10:01.790Z,100895.16
2022-07-30T04:13:51.504Z,100893.32
2022-07-30T04:17:45.583Z,100897.80
2022-07-30T04:21:42.027Z,100893.08
2022-07-30T04:25:37.405Z,100895.58
2022-07-30T04:29:26.859Z,100897.04
2022-07-30T04:31:58.491Z,100898.83
2022-07-30T04:34:55.531Z,100899.06
2022-07-30T04:37:59.445Z,100893.80
2022-07-30T04:40:33.917Z,100893.77
2022-07-30T04:43:15.869Z,100891.33
2022-07-30T04:46:01.494Z,100889.70
2022-07-30T04:48:38.868Z,100891.07
2022-07-30T04:51:17.126Z,100887.73
2022-07-30T04:54:30.275Z,100882.17
2022-07-30T04:58:10.380Z,100882.16
2022-07-30T05:01:24.157Z,100879.32
2022-07-30T05:04:15.299Z,100884.61
2022-07-30T05:08:04.209Z,100881.03
2022-07-30T05:11:04.060Z,100878.11
2022-07-30T05:13:48.446Z,100874.71
2022-07-30T05:16:29.719Z,100878.58
2022-07-30T05:19:21.077Z,100879.35
2022-07-30T05:21:55.639Z,100877.96
2022-07-30T05:25:26.196Z,100881.46
2022-07-30T05:29:00.411Z,100880.55
2022-07-30T05:32:02.489Z,100876.75
2022-07-30T05:34:50.105Z,100874.63
2022-07-30T05:37:29.766Z,100876.89
2022-07-30T05:40:34.587Z,100879.94
2022-07-30T05:43:25.447Z,100879.13
2022-07-30T05:46:29.363Z,100878.59
2022-07-30T05:48:58.154Z,100876.77
2022-07-30T05:51:47.974Z,100879.27
2022-07-30T05:59:50.961Z,100889.89
2022-07-30T06:03:43.731Z,100884.80
2022-07-30T06:06:40.786Z,100886.20
2022-07-30T06:10:16.303Z,100884.88
2022-07-30T06:13:55.942Z,100884.08
2022-07-30T06:17:44.902Z,100886.27
2022-07-30T06:22:05.808Z,100890.42
2022-07-30T06:25:11.312Z,100894.11
2022-07-30T06:28:38.481Z,100890.71
2022-07-30T06:32:28.073Z,100893.04
2022-07-30T06:36:01.371Z,100894.33
2022-07-30T06:39:15.541Z,100894.06
2022-07-30T06:43:35.494Z,100890.30
2022-07-30T06:47:29.024Z,100889.05
2022-07-30T06:50:56.677Z,100898.96
2022-07-30T06:54:27.125Z,100893.17
2022-07-30T06:57:28.629Z,100889.69
2022-07-30T07:01:10.990Z,100893.95
2022-07-30T07:04:53.030Z,100888.23
2022-07-30T07:08:09.161Z,100895.78
2022-07-30T07:11:33.373Z,100892.02
2022-07-30T07:14:26.977Z,100891.48
2022-07-30T07:17:46.614Z,100887.49
2022-07-30T07:20:52.424Z,100889.14
2022-07-30T07:23:48.673Z,100887.70
2022-07-30T07:27:38.950Z,100877.12
2022-07-30T07:31:06.980Z,100882.66
2022-07-30T07:34:49.421Z,100878.23
2022-07-30T07:37:53.431Z,100875.02
2022-07-30T07:41:28.351Z,100871.39
2022-07-30T07:44:52.912Z,100867.27
2022-07-30T07:48:46.603Z,100867.68
2022-07-30T07:52:55.951Z,100867.59
2022-07-30T07:56:29.312Z,100865.98
2022-07-30T07:59:52.900Z,100864.45
2022-07-30T08:02:38.870Z,100863.23
2022-07-30T08:05:58.057Z,100865.09
2022-07-30T08:09:03.974Z,100864.89
2022-07-30T08:12:20.517Z,100860.21
2022-07-30T08:16:00.488Z,100862.02
2022-07-30T08:19:00.616Z,100858.52
2022-07-30T08:22:00.146Z,100863.02
2022-07-30T08:25:22.146Z,100860.02
2022-07-30T08:28:54.564Z,100860.69
2022-07-30T08:32:33.542Z,100859.67
2022-07-30T08:36:25.763Z,100847.84
2022-07-30T08:39:27.706Z,100850.23
2022-07-30T08:42:48.050Z,100854.41
2022-07-30T08:45:34.679Z,100852.83
2022-07-30T08:49:15.764Z,100851.61
2022-07-30T08:53:09.878Z,100848.51
2022-07-30T08:56:35.610Z,100845.90
2022-07-30T09:00:01.181Z,100851.80
2022-07-30T09:02:39.457Z,100850.51
2022-07-30T09:05:24.983Z,100853.27
2022-07-30T09:08:09.029Z,100850.39
2022-07-30T09:11:14.608Z,100856.27
2022-07-30T09:14:44.113Z,100852.80
2022-07-30T09:17:13.098Z,100851.44
2022-07-30T09:20:09.532Z,100854.55
2022-07-30T09:23:07.076Z,100852.80
2022-07-30T09:26:19.925Z,100852.80
2022-07-30T09:29:52.220Z,100852.01
2022-07-30T09:33:51.767Z,100849.52
2022-07-30T09:37:37.908Z,100848.35
2022-07-30T09:41:41.469Z,100843.48
2022-07-30T09:45:19.389Z,100843.05
2022-07-30T09:49:09.429Z,100844.75
2022-07-30T09:53:00.149Z,100842.73
2022-07-30T09:57:05.098Z,100845.52
2022-07-30T10:00:58.584Z,100847.50
2022-07-30T10:04:49.527Z,100854.63
2022-07-30T10:08:38.426Z,100857.86
2022-07-30T10:12:30.200Z,100856.95
2022-07-30T10:16:21.700Z,100848.67
2022-07-30T10:20:13.202Z,100850.20
2022-07-30T10:24:12.608Z,100852.48
2022-07-30T10:28:11.309Z,100848.05
2022-07-30T10:32:03.882Z,100849.35
2022-07-30T10:35:54.301Z,100848.46
2022-07-30T10:39:44.657Z,100849.41
2022-07-30T10:43:55.776Z,100861.09
2022-07-30T10:47:44.928Z,100863.93
2022-07-30T10:51:38.769Z,100867.56
2022-07-30T10:55:37.375Z,100864.75
2022-07-30T11:02:48.578Z,100867.84
2022-07-30T11:06:24.104Z,100863.88
2022-07-30T11:10:22.908Z,100865.83
2022-07-30T11:14:09.981Z,100863.95
2022-07-30T11:18:01.485Z,100866.54
2022-07-30T11:21:31.368Z,100866.14
2022-07-30T11:25:25.685Z,100865.18
2022-07-30T11:29:50.930Z,100862.84
2022-07-30T11:33:18.642Z,100858.27
2022-07-30T11:37:01.678Z,100864.17
2022-07-30T11:41:08.276Z,100865.98
2022-07-30T11:44:20.249Z,100872.10
2022-07-30T11:47:51.181Z,100872.58
2022-07-30T11:50:55.094Z,100864.18
2022-07-30T11:53:31.886Z,100875.02
2022-07-30T11:56:01.521Z,100870.59
2022-07-30T11:59:02.227Z,100876.08
2022-07-30T12:01:40.073Z,100871.16
2022-07-30T12:04:11.244Z,100872.20
2022-07-30T12:07:05.618Z,100875.70
2022-07-30T12:09:45.620Z,100869.73
2022-07-30T12:12:30.898Z,100873.07
2022-07-30T12:15:17.630Z,100882.48
2022-07-30T12:18:11.094Z,100880.39
2022-07-30T12:21:18.377Z,100882.17
2022-07-30T12:24:00.886Z,100885.82
2022-07-30T12:27:07.811Z,100889.31
2022-07-30T12:29:53.098Z,100893.35
2022-07-30T12:32:36.230Z,100893.30
2022-07-30T12:35:07.337Z,100893.54
2022-07-30T12:37:40.189Z,100886.28
2022-07-30T12:40:22.196Z,100880.82
2022-07-30T12:43:13.980Z,100882.46
2022-07-30T12:46:06.030Z,100883.27
2022-07-30T12:48:47.996Z,100884.69
2022-07-30T12:51:21.649Z,100881.10
2022-07-30T12:53:53.136Z,100883.67
2022-07-30T12:57:22.156Z,100874.81
2022-07-30T13:00:17.587Z,100879.31
2022-07-30T13:03:29.720Z,100878.67
2022-07-30T13:06:53.929Z,100878.19
2022-07-30T13:09:22.077Z,100880.73
2022-07-30T13:12:12.121Z,100881.97
2022-07-30T13:14:42.127Z,100879.86
2022-07-30T13:17:37.679Z,100881.52
2022-07-30T13:20:46.300Z,100882.41
2022-07-30T13:23:43.182Z,100882.28
2022-07-30T13:26:51.992Z,100877.96
2022-07-30T13:30:40.370Z,100874.52
2022-07-30T13:33:53.320Z,100878.96
2022-07-30T13:37:07.991Z,100876.11
2022-07-30T13:40:16.678Z,100874.36
2022-07-30T13:43:39.876Z,100868.78
2022-07-30T13:47:09.806Z,100867.67
2022-07-30T13:49:51.433Z,100870.95
2022-07-30T13:52:42.941Z,100872.73
2022-07-30T13:56:01.885Z,100869.11
2022-07-30T13:59:34.454Z,100873.68
2022-07-30T14:02:26.222Z,100871.65
2022-07-30T14:05:08.223Z,100872.54
2022-07-30T14:08:09.400Z,100870.05
2022-07-30T14:10:58.410Z,100871.10
2022-07-30T14:13:58.011Z,100869.55
2022-07-30T14:16:57.181Z,100867.52
2022-07-30T14:20:05.243Z,100866.10
2022-07-30T14:22:58.392Z,100866.25
2022-07-30T14:26:09.555Z,100860.80
2022-07-30T14:29:57.556Z,100865.27
2022-07-30T14:33:39.878Z,100861.65
2022-07-30T14:36:13.705Z,100860.02
2022-07-30T14:39:33.811Z,100859.15
2022-07-30T14:42:56.786Z,100852.20
2022-07-30T14:46:02.431Z,100848.78
2022-07-30T14:49:18.036Z,100848.64
2022-07-30T14:52:45.735Z,100848.36
2022-07-30T14:55:35.878Z,100852.30
2022-07-30T14:58:34.960Z,100850.70
2022-07-30T15:01:16.272Z,100851.15
2022-07-30T15:03:45.187Z,100847.54
2022-07-30T15:06:28.235Z,100845.02
2022-07-30T15:09:27.996Z,100846.75
2022-07-30T15:12:23.735Z,100845.04
2022-07-30T15:15:18.501Z,100851.20
2022-07-30T15:18:12.931Z,100850.71
2022-07-30T15:21:40.367Z,100846.09
2022-07-30T15:24:48.715Z,100854.40
2022-07-30T15:28:03.856Z,100848.13
2022-07-30T15:31:31.380Z,100847.38
2022-07-30T15:34:35.139Z,100848.11
2022-07-30T15:37:18.384Z,100840.16
2022-07-30T15:40:45.551Z,100845.50
2022-07-30T15:44:17.757Z,100833.72
2022-07-30T15:47:48.157Z,100840.27
2022-07-30T15:51:29.694Z,100843.63
2022-07-30T15:54:36.959Z,100842.91
2022-07-30T15:58:25.286Z,100841.67
2022-07-30T16:02:12.620Z,100845.49
2022-07-30T16:04:44.519Z,100842.11
2022-07-30T16:08:21.803Z,100845.98
2022-07-30T16:12:02.731Z,100847.57
2022-07-30T16:15:08.576Z,100849.11
2022-07-30T16:18:15.922Z,100848.88
2022-07-30T16:20:54.214Z,100852.45
2022-07-30T16:23:55.411Z,100847.70
2022-07-30T16:27:05.849Z,100854.81
2022-07-30T16:30:03.057Z,100854.23
2022-07-30T16:33:11.443Z,100856.67
2022-07-30T16:36:32.878Z,100850.04
2022-07-30T16:39:40.238Z,100850.95
2022-07-30T16:42:31.045Z,100853.35
2022-07-30T16:46:09.609Z,100848.27
2022-07-30T16:49:38.547Z,100861.34
2022-07-30T16:52:11.456Z,100863.96
2022-07-30T16:55:19.196Z,100866.17
2022-07-30T16:58:08.948Z,100864.17
2022-07-30T17:01:01.203Z,100863.23
2022-07-30T17:04:30.058Z,100864.86
2022-07-30T17:08:06.143Z,100862.16
2022-07-30T17:11:51.988Z,100861.67
2022-07-30T17:14:40.452Z,100867.17
2022-07-30T17:17:28.835Z,100863.06
2022-07-30T17:20:29.262Z,100872.98
2022-07-30T17:23:38.855Z,100870.59
2022-07-30T17:26:34.938Z,100874.05
2022-07-30T17:29:49.929Z,100877.29
2022-07-30T17:32:35.459Z,100878.32
2022-07-30T17:35:45.291Z,100880.70
2022-07-30T17:38:19.957Z,100880.98
2022-07-30T17:41:10.549Z,100886.04
2022-07-30T17:44:03.123Z,100886.09
2022-07-30T17:46:53.770Z,100886.09
2022-07-30T17:49:56.713Z,100885.67
2022-07-30T17:52:27.369Z,100884.42
2022-07-30T17:55:15.578Z,100884.17
2022-07-30T17:57:51.271Z,100884.08
2022-07-30T18:00:25.863Z,100886.46
2022-07-30T18:02:56.033Z,100884.34
2022-07-30T18:05:30.179Z,100889.76
2022-07-30T18:08:52.053Z,100887.33
2022-07-30T18:11:19.509Z,100895.21
2022-07-30T18:13:53.576Z,100896.00
2022-07-30T18:16:25.765Z,100897.61
2022-07-30T18:18:56.667Z,100900.95
2022-07-30T18:21:25.559Z,100905.58
2022-07-30T18:24:07.416Z,100906.73
2022-07-30T18:26:42.661Z,100910.45
2022-07-30T18:29:14.028Z,100912.77
2022-07-30T18:31:43.576Z,100912.69
2022-07-30T18:34:15.662Z,100912.17
2022-07-30T18:36:55.004Z,100914.48
2022-07-30T18:39:45.339Z,100916.39
2022-07-30T18:42:15.817Z,100920.66
2022-07-30T18:44:48.115Z,100919.64
2022-07-30T18:47:27.465Z,100918.80
2022-07-30T18:50:13.711Z,100921.22
2022-07-30T18:52:48.087Z,100923.39
2022-07-30T18:55:20.727Z,100925.79
2022-07-30T18:57:52.501Z,100925.01
2022-07-30T19:01:00.596Z,100932.66
2022-07-30T19:03:33.321Z,100931.48
2022-07-30T19:06:03.271Z,100933.05
2022-07-30T19:08:41.120Z,100939.55
2022-07-30T19:11:14.647Z,100940.49
2022-07-30T19:13:42.678Z,100938.80
2022-07-30T19:16:16.131Z,100938.06
2022-07-30T19:19:05.630Z,100943.56
2022-07-30T19:22:04.190Z,100945.98
2022-07-30T19:25:15.698Z,100944.52
2022-07-30T19:28:17.247Z,100944.86
2022-07-30T19:31:07.262Z,100947.43
2022-07-30T19:33:54.256Z,100946.46
2022-07-30T19:36:44.144Z,100947.77
2022-07-30T19:39:35.021Z,100949.97
2022-07-30T19:42:13.903Z,100950.39
2022-07-30T19:44:46.223Z,100954.71
2022-07-30T19:47:43.388Z,100956.08
2022-07-30T19:50:59.482Z,100958.94
2022-07-30T19:54:10.524Z,100961.46
2022-07-30T19:57:53.475Z,100960.80
2022-07-30T20:01:08.310Z,100963.60
2022-07-30T20:04:30.064Z,100966.48
2022-07-30T20:07:58.358Z,100965.28
2022-07-30T20:10:57.544Z,100964.85
2022-07-30T20:14:13.121Z,100967.80
2022-07-30T20:20:29.084Z,100965.22
2022-07-30T20:23:37.523Z,100965.02
2022-07-30T20:27:36.204Z,100965.28
2022-07-30T20:31:04.202Z,100963.88
2022-07-30T20:34:34.164Z,100965.30
2022-07-30T20:38:21.773Z,100966.64
2022-07-30T20:41:35.770Z,100966.80
2022-07-30T20:45:24.999Z,100966.80
2022-07-30T20:48:42.185Z,100967.88
2022-07-30T20:52:24.974Z,100968.66
2022-07-30T20:56:14.915Z,100965.73
2022-07-30T20:59:37.022Z,100963.69
2022-07-30T21:03:21.745Z,100968.57
2022-07-30T21:06:34.850Z,100961.88
2022-07-30T21:10:12.576Z,100960.79
2022-07-30T21:14:03.042Z,100961.96
2022-07-30T21:17:51.524Z,100958.82
2022-07-30T21:21:47.910Z,100962.58
2022-07-30T21:25:36.206Z,100963.38
2022-07-30T21:29:44.648Z,100958.27
2022-07-30T21:32:37.030Z,100957.30
2022-07-30T21:36:05.108Z,100954.84
2022-07-30T21:39:59.354Z,100953.45
2022-07-30T21:42:48.172Z,100957.14
2022-07-30T21:46:27.119Z,100957.05
2022-07-30T21:49:14.725Z,100953.19
2022-07-30T21:51:44.861Z,100953.70
2022-07-30T21:54:48.207Z,100952.43
2022-07-30T21:57:45.945Z,100952.31
2022-07-30T22:00:25.805Z,100953.77
2022-07-30T22:04:04.068Z,100947.52
2022-07-30T22:07:15.756Z,100943.29
2022-07-30T22:10:41.777Z,100935.86
2022-07-30T22:13:53.679Z,100937.79
2022-07-30T22:17:36.807Z,100939.95
2022-07-30T22:21:05.983Z,100940.98
2022-07-30T22:24:07.773Z,100935.05
2022-07-30T22:27:55.929Z,100933.05
2022-07-30T22:31:14.265Z,100927.45
2022-07-30T22:34:11.287Z,100925.54
2022-07-30T22:37:24.620Z,100920.09
2022-07-30T22:40:44.871Z,100917.63
2022-07-30T22:43:23.014Z,100915.86
2022-07-30T22:47:00.816Z,100915.20
2022-07-30T22:49:55.206Z,100917.37
2022-07-30T22:54:10.543Z,100911.84
2022-07-30T22:57:30.034Z,100906.71
2022-07-30T23:00:28.054Z,100909.77
2022-07-30T23:04:16.252Z,100912.06
2022-07-30T23:07:49.029Z,100910.59
2022-07-30T23:10:39.352Z,100910.31
2022-07-30T23:12:17.113Z,100965.44
2022-07-30T23:14:07.715Z,100905.28
2022-07-30T23:17:30.287Z,100906.69
2022-07-30T23:20:27.126Z,100909.50
2022-07-30T23:23:56.264Z,100904.30
2022-07-30T23:27:05.477Z,100903.36
2022-07-30T23:30:02.755Z,100908.33
2022-07-30T23:33:05.837Z,100906.35
2022-07-30T23:36:27.816Z,100908.23
2022-07-30T23:39:04.394Z,100907.85
2022-07-30T23:42:14.767Z,100905.73
2022-07-30T23:45:53.861Z,100906.98
2022-07-30T23:48:45.908Z,100909.88
2022-07-30T23:51:41.532Z,100911.30
2022-07-30T23:54:39.644Z,100914.05
2022-07-30T23:57:57.966Z,100913.34
